Time;durP1;ratioP1;P1;durP2;ratioP2;P2;SDS_P1;SDS_P2;PMS_P1;PMS_P2;Temp;Humidity;BMP_temperature;BMP_pressure;BME280_temperature;BME280_humidity;BME280_pressure;Samples;Min_cycle;Max_cycle;Signal;HPM_P1;HPM_P2
2022/12/17 13:08:15;;;;;;;;;;;;;;;;;;4932807;29;19949;-57
2022/12/17 13:10:41;;;;;;;;;;;;;;;;;;4972289;28;20458;-57
2022/12/17 13:13:07;;;;;;;;;;;;;;;;;;5030373;28;20011;-59
2022/12/17 13:15:33;;;;;;;;;;;;;;;;;;5031024;28;19975;-58
2022/12/17 13:17:59;;;;;;;;;;;;;;;;;;5024702;28;19937;-57
2022/12/17 13:20:25;;;;;;;;;;;;;;;;;;5031272;28;20012;-58
2022/12/17 13:22:51;;;;;;;;;;;;;;;;;;5029620;28;19948;-57
2022/12/17 13:25:16;;;;;;;;;;;;;;;;;;5027180;28;20012;-57
2022/12/17 13:27:43;;;;;;;;;;;;;;;;;;5031498;28;19971;-57
2022/12/17 13:30:08;;;;;;;;;;;;;;;;;;5026546;28;19913;-58
2022/12/17 13:32:38;;;;;;;;;;;;;;;;;;5031084;28;19996;-57
2022/12/17 13:35:03;;;;;;;;;;;;;;;;;;5030766;28;19913;-58
2022/12/17 13:37:29;;;;;;;;;;;;;;;;;;5026482;28;19949;-57
2022/12/17 13:39:55;;;;;;;;;;;;;;;;;;5031072;28;19959;-57
2022/12/17 13:42:21;;;;;;;;;;;;;;;;;;5029876;28;20018;-57
2022/12/17 13:44:47;;;;;;;;;;;;;;;;;;5028273;28;19968;-59
2022/12/17 13:47:13;;;;;;;;;;;;;;;;;;5026905;28;20334;-58
2022/12/17 13:49:39;;;;;;;;;;;;;;;;;;5028907;28;19982;-58
2022/12/17 13:52:05;;;;;;;;;;;;;;;;;;5030487;28;19921;-58
2022/12/17 13:54:31;;;;;;;;;;;;;;;;;;5029879;28;19917;-58
2022/12/17 13:56:57;;;;;;;;;;;;;;;;;;5027414;28;19981;-58
2022/12/17 13:59:23;;;;;;;;;;;;;;;;;;5025970;28;19955;-60
2022/12/17 14:01:49;;;;;;;;;;;;;;;;;;5027698;28;20296;-57
2022/12/17 14:04:14;;;;;;;;;;;;;;;;;;5031523;28;19955;-58
2022/12/17 14:06:40;;;;;;;;;;;;;;;;;;5030981;28;19956;-58
2022/12/17 14:09:06;;;;;;;;;;;;;;;;;;5030932;28;19913;-58
2022/12/17 14:14:17;;;;;;;;;;;;;;;;;;5029172;28;19932;-58
2022/12/17 14:16:43;;;;;;;;;;;;;;;;;;5026842;28;19957;-57
2022/12/17 14:19:09;;;;;;;;;;;;;;;;;;5024667;28;19923;-59
2022/12/17 14:21:36;;;;;;;;;;;;;;;;;;5032795;28;19920;-58
2022/12/17 14:24:01;;;;;;;;;;;;;;;;;;5031745;28;19913;-58
2022/12/17 14:26:27;;;;;;;;;;;;;;;;;;5031389;28;20578;-58
2022/12/17 14:28:53;;;;;;;;;;;;;;;;;;5030594;28;19995;-58
2022/12/17 14:31:19;;;;;;;;;;;;;;;;;;5029859;28;19921;-59
2022/12/17 14:33:45;;;;;;;;;;;;;;;;;;5030050;28;20448;-58
2022/12/17 14:36:11;;;;;;;;;;;;;;;;;;5031402;28;19952;-58
2022/12/17 14:38:37;;;;;;;;;;;;;;;;;;5031443;28;20339;-57
2022/12/17 14:42:24;;;;;;;;;;;;;;;;;;5030954;28;20375;-58
2022/12/17 14:43:49;;;;;;;;;;;;;;;;;;5019400;28;19913;-59
2022/12/17 14:46:21;;;;;;;;;;;;;;;;;;5030473;28;19964;-58
2022/12/17 14:49:02;;;;;;;;;;;;;;;;;;5030250;28;20337;-57
2022/12/17 14:51:28;;;;;;;;;;;;;;;;;;5029873;28;19925;-58
2022/12/17 14:53:54;;;;;;;;;;;;;;;;;;5031316;28;19921;-58
2022/12/17 14:56:20;;;;;;;;;;;;;;;;;;5031087;28;19960;-58
2022/12/17 14:58:46;;;;;;;;;;;;;;;;;;5031386;28;19952;-58
2022/12/17 15:01:12;;;;;;;;;;;;;;;;;;5030201;28;19919;-59
2022/12/17 15:03:38;;;;;;;;;;;;;;;;;;5030620;28;19960;-58
2022/12/17 15:06:04;;;;;;;;;;;;;;;;;;5030269;28;19917;-58
2022/12/17 15:08:30;;;;;;;;;;;;;;;;;;5030090;28;19913;-58
2022/12/17 15:10:56;;;;;;;;;;;;;;;;;;5030638;28;19917;-59
2022/12/17 15:13:22;;;;;;;;;;;;;;;;;;5025031;28;20408;-58
2022/12/17 15:15:47;;;;;;;;;;;;;;;;;;5031288;28;19960;-58
2022/12/17 15:18:15;;;;;;;;;;;;;;;;;;5029665;28;22510;-58
2022/12/17 15:20:41;;;;;;;;;;;;;;;;;;5022913;28;19918;-57
2022/12/17 15:23:07;;;;;;;;;;;;;;;;;;5034975;28;19913;-58
2022/12/17 15:25:33;;;;;;;;;;;;;;;;;;5033447;28;19952;-58
2022/12/17 15:27:59;;;;;;;;;;;;;;;;;;5033757;28;19917;-59
2022/12/17 15:30:25;;;;;;;;;;;;;;;;;;5034465;28;19998;-59
2022/12/17 15:32:51;;;;;;;;;;;;;;;;;;5034178;28;19976;-58
2022/12/17 15:35:17;;;;;;;;;;;;;;;;;;5034321;28;19916;-57
2022/12/17 15:37:43;;;;;;;;;;;;;;;;;;5034106;28;19995;-57
2022/12/17 15:40:10;;;;;;;;;;;;;;;;;;5033958;28;19952;-58
2022/12/17 15:45:24;;;;;;;;;;;;;;;;;;5033644;28;19962;-58
2022/12/17 15:47:50;;;;;;;;;;;;;;;;;;5033937;28;19913;-58
2022/12/17 15:50:16;;;;;;;;;;;;;;;;;;5034407;28;19948;-58
2022/12/17 15:52:42;;;;;;;;;;;;;;;;;;5034116;28;19920;-58
2022/12/17 15:55:08;;;;;;;;;;;;;;;;;;5034543;28;20056;-58
2022/12/17 15:57:33;;;;;;;;;;;;;;;;;;5029423;28;19913;-58
2022/12/17 15:59:59;;;;;;;;;;;;;;;;;;5033649;28;19995;-59
2022/12/17 16:02:25;;;;;;;;;;;;;;;;;;5034340;28;20376;-58
2022/12/17 16:04:51;;;;;;;;;;;;;;;;;;5033999;28;20016;-58
2022/12/17 16:07:17;;;;;;;;;;;;;;;;;;5030573;28;19920;-58
2022/12/17 16:09:43;;;;;;;;;;;;;;;;;;5034055;28;19910;-57
2022/12/17 16:12:09;;;;;;;;;;;;;;;;;;5030807;28;20460;-59
2022/12/17 16:14:35;;;;;;;;;;;;;;;;;;5032913;28;19924;-58
2022/12/17 16:17:01;;;;;;;;;;;;;;;;;;5034084;28;19909;-58
2022/12/17 16:19:26;;;;;;;;;;;;;;;;;;5027069;28;19987;-59
2022/12/17 16:21:52;;;;;;;;;;;;;;;;;;5030312;28;19960;-58
2022/12/17 16:24:18;;;;;;;;;;;;;;;;;;5033609;28;19909;-57
2022/12/17 16:26:44;;;;;;;;;;;;;;;;;;5033799;28;19966;-58
2022/12/17 16:29:10;;;;;;;;;;;;;;;;;;5033830;28;19941;-58
2022/12/17 16:31:36;;;;;;;;;;;;;;;;;;5033359;28;19909;-58
2022/12/17 16:34:02;;;;;;;;;;;;;;;;;;5030104;28;19956;-58
2022/12/17 16:36:28;;;;;;;;;;;;;;;;;;5033028;28;19951;-59
2022/12/17 16:38:54;;;;;;;;;;;;;;;;;;5032701;28;19963;-59
2022/12/17 16:41:20;;;;;;;;;;;;;;;;;;5033024;28;20566;-59
2022/12/17 16:43:46;;;;;;;;;;;;;;;;;;5032684;28;20015;-58
2022/12/17 16:46:12;;;;;;;;;;;;;;;;;;5033629;28;20441;-58
2022/12/17 16:48:38;;;;;;;;;;;;;;;;;;5032892;28;19984;-57
2022/12/17 16:51:03;;;;;;;;;;;;;;;;;;5031659;28;19919;-58
2022/12/17 16:53:29;;;;;;;;;;;;;;;;;;5032325;28;20261;-58
2022/12/17 16:55:55;;;;;;;;;;;;;;;;;;5015396;28;19952;-58
2022/12/17 16:58:21;;;;;;;;;;;;;;;;;;5033270;28;19940;-58
2022/12/17 17:00:47;;;;;;;;;;;;;;;;;;5032956;28;19913;-58
2022/12/17 17:03:16;;;;;;;;;;;;;;;;;;5032080;28;19920;-58
2022/12/17 17:05:42;;;;;;;;;;;;;;;;;;5032072;28;19921;-60
2022/12/17 17:08:08;;;;;;;;;;;;;;;;;;5032841;28;19952;-58
2022/12/17 17:10:33;;;;;;;;;;;;;;;;;;5013509;28;20008;-58
2022/12/17 17:12:59;;;;;;;;;;;;;;;;;;5032752;28;19924;-58
2022/12/17 17:15:25;;;;;;;;;;;;;;;;;;5032749;28;20276;-58
2022/12/17 17:17:51;;;;;;;;;;;;;;;;;;5032720;28;19917;-57
2022/12/17 17:20:17;;;;;;;;;;;;;;;;;;5031609;28;20031;-58
2022/12/17 17:22:43;;;;;;;;;;;;;;;;;;5031947;28;19913;-59
2022/12/17 17:25:09;;;;;;;;;;;;;;;;;;5032726;28;19920;-58
2022/12/17 17:27:35;;;;;;;;;;;;;;;;;;5031446;28;20394;-59
2022/12/17 17:30:01;;;;;;;;;;;;;;;;;;5032405;28;19921;-58
2022/12/17 17:32:27;;;;;;;;;;;;;;;;;;5031977;28;20005;-58
2022/12/17 17:34:53;;;;;;;;;;;;;;;;;;5032563;28;19920;-58
2022/12/17 17:37:19;;;;;;;;;;;;;;;;;;5031586;28;19913;-58
2022/12/17 17:39:45;;;;;;;;;;;;;;;;;;5032525;28;19980;-58
2022/12/17 17:42:10;;;;;;;;;;;;;;;;;;5031645;28;20392;-58
2022/12/17 17:44:37;;;;;;;;;;;;;;;;;;5030553;28;20007;-57
2022/12/17 17:47:03;;;;;;;;;;;;;;;;;;5032313;28;19924;-58
2022/12/17 17:49:29;;;;;;;;;;;;;;;;;;5032162;28;19928;-58
2022/12/17 17:51:54;;;;;;;;;;;;;;;;;;5030795;28;20380;-58
2022/12/17 17:54:20;;;;;;;;;;;;;;;;;;5032407;28;19973;-58
2022/12/17 17:56:46;;;;;;;;;;;;;;;;;;5032236;28;19909;-58
2022/12/17 17:59:12;;;;;;;;;;;;;;;;;;5026089;28;19917;-58
2022/12/17 18:01:38;;;;;;;;;;;;;;;;;;5027497;28;19913;-59
2022/12/17 18:04:04;;;;;;;;;;;;;;;;;;5026970;28;19979;-58
2022/12/17 18:06:31;;;;;;;;;;;;;;;;;;5023139;28;19960;-57
2022/12/17 18:08:57;;;;;;;;;;;;;;;;;;5024661;28;19935;-59
2022/12/17 18:11:23;;;;;;;;;;;;;;;;;;5021787;28;19941;-58
2022/12/17 18:13:55;;;;;;;;;;;;;;;;;;5025081;28;19928;-59
2022/12/17 18:16:21;;;;;;;;;;;;;;;;;;5022223;28;20480;-57
2022/12/17 18:18:47;;;;;;;;;;;;;;;;;;5024822;28;19941;-59
2022/12/17 18:21:13;;;;;;;;;;;;;;;;;;5020215;28;19921;-58
2022/12/17 18:23:39;;;;;;;;;;;;;;;;;;5027789;28;20006;-58
2022/12/17 18:26:05;;;;;;;;;;;;;;;;;;5028437;28;20327;-56
2022/12/17 18:28:31;;;;;;;;;;;;;;;;;;5023600;28;19919;-60
2022/12/17 18:30:57;;;;;;;;;;;;;;;;;;5023215;28;19917;-58
2022/12/17 18:33:24;;;;;;;;;;;;;;;;;;5025085;28;19959;-58
2022/12/17 18:35:50;;;;;;;;;;;;;;;;;;5027360;28;20426;-58
2022/12/17 18:38:16;;;;;;;;;;;;;;;;;;5024079;28;19929;-57
2022/12/17 18:40:42;;;;;;;;;;;;;;;;;;5018878;28;19921;-60
2022/12/17 18:43:23;;;;;;;;;;;;;;;;;;5024085;28;19974;-60
2022/12/17 18:45:49;;;;;;;;;;;;;;;;;;5023025;28;19921;-57
2022/12/17 18:48:15;;;;;;;;;;;;;;;;;;5023886;28;19924;-58
2022/12/17 18:50:41;;;;;;;;;;;;;;;;;;5024768;28;19952;-57
2022/12/17 18:53:07;;;;;;;;;;;;;;;;;;5027946;28;19951;-58
2022/12/17 18:55:33;;;;;;;;;;;;;;;;;;5026300;28;20039;-58
2022/12/17 18:58:00;;;;;;;;;;;;;;;;;;5032167;28;19952;-58
2022/12/17 19:00:26;;;;;;;;;;;;;;;;;;5026088;28;19939;-57
2022/12/17 19:02:52;;;;;;;;;;;;;;;;;;5033086;28;20012;-58
2022/12/17 19:05:18;;;;;;;;;;;;;;;;;;5024488;28;20337;-58
2022/12/17 19:07:44;;;;;;;;;;;;;;;;;;5031138;28;19997;-58
2022/12/17 19:10:09;;;;;;;;;;;;;;;;;;5026017;28;19914;-59
2022/12/17 19:12:35;;;;;;;;;;;;;;;;;;5028275;28;19957;-59
2022/12/17 19:15:01;;;;;;;;;;;;;;;;;;5027216;28;19923;-59
2022/12/17 19:17:27;;;;;;;;;;;;;;;;;;5023721;28;19917;-58
2022/12/17 19:19:53;;;;;;;;;;;;;;;;;;5025362;28;19975;-58
2022/12/17 19:22:19;;;;;;;;;;;;;;;;;;5026854;28;19955;-58
2022/12/17 19:24:45;;;;;;;;;;;;;;;;;;5025522;28;19913;-59
2022/12/17 19:27:11;;;;;;;;;;;;;;;;;;5024829;28;20394;-57
2022/12/17 19:29:37;;;;;;;;;;;;;;;;;;5024389;28;20357;-58
2022/12/17 19:32:03;;;;;;;;;;;;;;;;;;5025003;28;20012;-59
2022/12/17 19:34:30;;;;;;;;;;;;;;;;;;5022522;28;19943;-58
2022/12/17 19:36:56;;;;;;;;;;;;;;;;;;5025394;28;20387;-58
2022/12/17 19:39:22;;;;;;;;;;;;;;;;;;5026535;28;19956;-58
2022/12/17 19:41:49;;;;;;;;;;;;;;;;;;5025227;28;20116;-58
2022/12/17 19:44:15;;;;;;;;;;;;;;;;;;5032043;28;19916;-58
2022/12/17 19:46:40;;;;;;;;;;;;;;;;;;5034018;28;19921;-59
2022/12/17 19:49:07;;;;;;;;;;;;;;;;;;5025734;28;20374;-58
2022/12/17 19:51:33;;;;;;;;;;;;;;;;;;5034015;28;19919;-59
2022/12/17 19:53:59;;;;;;;;;;;;;;;;;;5028281;28;19913;-58
2022/12/17 19:56:25;;;;;;;;;;;;;;;;;;5019460;28;20603;-59
2022/12/17 19:58:51;;;;;;;;;;;;;;;;;;5032185;28;19913;-59
2022/12/17 20:01:17;;;;;;;;;;;;;;;;;;5029242;28;20466;-60
2022/12/17 20:03:43;;;;;;;;;;;;;;;;;;5028985;28;19960;-57
2022/12/17 20:06:09;;;;;;;;;;;;;;;;;;5034075;28;19953;-57
2022/12/17 20:08:35;;;;;;;;;;;;;;;;;;5033534;28;19910;-58
2022/12/17 20:11:00;;;;;;;;;;;;;;;;;;5032722;28;20003;-58
2022/12/17 20:13:26;;;;;;;;;;;;;;;;;;5019999;28;19921;-57
2022/12/17 20:15:52;;;;;;;;;;;;;;;;;;5026086;28;19917;-57
2022/12/17 20:18:18;;;;;;;;;;;;;;;;;;5032676;28;20399;-58
2022/12/17 20:20:44;;;;;;;;;;;;;;;;;;5029036;28;19921;-61
2022/12/17 20:23:10;;;;;;;;;;;;;;;;;;5032184;28;19948;-58
2022/12/17 20:25:36;;;;;;;;;;;;;;;;;;5028101;28;20372;-58
2022/12/17 20:28:02;;;;;;;;;;;;;;;;;;5031492;28;19923;-58
2022/12/17 20:30:28;;;;;;;;;;;;;;;;;;5025449;28;19920;-58
2022/12/17 20:32:54;;;;;;;;;;;;;;;;;;5029524;28;19913;-58
2022/12/17 20:35:20;;;;;;;;;;;;;;;;;;5031306;28;20391;-58
2022/12/17 20:37:46;;;;;;;;;;;;;;;;;;5028271;28;19909;-58
2022/12/17 20:40:12;;;;;;;;;;;;;;;;;;5027186;28;19932;-58
2022/12/17 20:42:38;;;;;;;;;;;;;;;;;;5029461;28;19944;-58
2022/12/17 20:45:04;;;;;;;;;;;;;;;;;;5026424;28;20036;-58
2022/12/17 20:47:30;;;;;;;;;;;;;;;;;;5022456;28;19915;-58
2022/12/17 20:49:55;;;;;;;;;;;;;;;;;;5021463;28;19949;-58
2022/12/17 20:52:21;;;;;;;;;;;;;;;;;;5032708;28;19966;-57
2022/12/17 20:54:48;;;;;;;;;;;;;;;;;;5021926;28;20402;-59
2022/12/17 20:57:14;;;;;;;;;;;;;;;;;;5022802;28;19941;-57
2022/12/17 20:59:39;;;;;;;;;;;;;;;;;;5031658;28;19979;-58
2022/12/17 21:02:05;;;;;;;;;;;;;;;;;;5031147;28;19917;-57
2022/12/17 21:04:32;;;;;;;;;;;;;;;;;;5031651;28;19944;-58
2022/12/17 21:06:58;;;;;;;;;;;;;;;;;;5032723;28;19913;-59
2022/12/17 21:09:24;;;;;;;;;;;;;;;;;;5026256;28;19999;-57
2022/12/17 21:11:50;;;;;;;;;;;;;;;;;;5029112;28;20009;-58
2022/12/17 21:14:16;;;;;;;;;;;;;;;;;;5025930;28;19998;-58
2022/12/17 21:16:41;;;;;;;;;;;;;;;;;;5025592;28;20327;-58
2022/12/17 21:19:07;;;;;;;;;;;;;;;;;;5030228;28;20004;-58
2022/12/17 21:21:33;;;;;;;;;;;;;;;;;;5027187;28;19956;-58
2022/12/17 21:24:00;;;;;;;;;;;;;;;;;;5028269;28;20155;-57
2022/12/17 21:26:26;;;;;;;;;;;;;;;;;;5029176;28;20303;-59
2022/12/17 21:28:52;;;;;;;;;;;;;;;;;;5031046;28;19918;-58
2022/12/17 21:31:17;;;;;;;;;;;;;;;;;;5025543;28;19940;-58
2022/12/17 21:33:45;;;;;;;;;;;;;;;;;;5031802;28;19992;-58
2022/12/17 21:36:11;;;;;;;;;;;;;;;;;;5031869;28;20386;-58
2022/12/17 21:38:37;;;;;;;;;;;;;;;;;;5029793;28;20000;-58
2022/12/17 21:41:02;;;;;;;;;;;;;;;;;;5030991;28;19917;-58
2022/12/17 21:43:28;;;;;;;;;;;;;;;;;;5031217;28;19945;-59
2022/12/17 21:45:54;;;;;;;;;;;;;;;;;;5022205;28;20434;-58
2022/12/17 21:48:20;;;;;;;;;;;;;;;;;;5021538;28;19967;-59
2022/12/17 21:50:46;;;;;;;;;;;;;;;;;;5029894;28;19913;-58
2022/12/17 21:53:12;;;;;;;;;;;;;;;;;;5025621;28;19917;-58
2022/12/17 21:55:38;;;;;;;;;;;;;;;;;;5023474;28;19955;-59
2022/12/17 21:58:04;;;;;;;;;;;;;;;;;;5018899;28;20341;-58
2022/12/17 22:00:30;;;;;;;;;;;;;;;;;;5018865;28;20274;-58
2022/12/17 22:02:56;;;;;;;;;;;;;;;;;;5018897;28;19960;-60
2022/12/17 22:05:22;;;;;;;;;;;;;;;;;;5022845;28;20147;-59
2022/12/17 22:07:48;;;;;;;;;;;;;;;;;;5029827;28;20620;-58
2022/12/17 22:10:13;;;;;;;;;;;;;;;;;;5025747;28;19913;-57
2022/12/17 22:15:24;;;;;;;;;;;;;;;;;;5024822;28;20395;-59
2022/12/17 22:17:50;;;;;;;;;;;;;;;;;;5027068;28;19909;-58
2022/12/17 22:20:16;;;;;;;;;;;;;;;;;;5029190;28;20020;-58
2022/12/17 22:22:42;;;;;;;;;;;;;;;;;;5025357;28;19974;-58
2022/12/17 22:25:08;;;;;;;;;;;;;;;;;;5029746;28;20396;-58
2022/12/17 22:27:34;;;;;;;;;;;;;;;;;;5007014;28;19921;-58
2022/12/17 22:33:03;;;;;;;;;;;;;;;;;;5023217;28;19921;-58
2022/12/17 22:35:29;;;;;;;;;;;;;;;;;;5024099;28;19948;-59
2022/12/17 22:37:54;;;;;;;;;;;;;;;;;;5024174;28;19964;-58
2022/12/17 22:40:21;;;;;;;;;;;;;;;;;;5022944;28;20016;-58
2022/12/17 22:45:32;;;;;;;;;;;;;;;;;;5022805;28;19928;-58
2022/12/17 22:47:58;;;;;;;;;;;;;;;;;;5021795;28;19956;-59
2022/12/17 22:50:23;;;;;;;;;;;;;;;;;;5018311;28;20618;-57
2022/12/17 22:52:49;;;;;;;;;;;;;;;;;;5018840;28;19962;-59
2022/12/17 22:55:15;;;;;;;;;;;;;;;;;;5026653;28;19967;-58
2022/12/17 22:57:41;;;;;;;;;;;;;;;;;;5025821;28;19953;-58
2022/12/17 23:00:07;;;;;;;;;;;;;;;;;;5022998;28;19953;-58
2022/12/17 23:02:33;;;;;;;;;;;;;;;;;;5024445;28;19970;-58
2022/12/17 23:04:59;;;;;;;;;;;;;;;;;;5027950;28;20427;-58
2022/12/17 23:07:25;;;;;;;;;;;;;;;;;;5031203;28;19987;-58
2022/12/17 23:09:51;;;;;;;;;;;;;;;;;;5016731;28;19917;-58
2022/12/17 23:15:01;;;;;;;;;;;;;;;;;;5023180;28;19936;-57
2022/12/17 23:17:27;;;;;;;;;;;;;;;;;;5029768;28;19917;-58
2022/12/17 23:19:53;;;;;;;;;;;;;;;;;;5015190;28;20010;-58
2022/12/17 23:22:19;;;;;;;;;;;;;;;;;;5029171;28;20336;-57
2022/12/17 23:24:48;;;;;;;;;;;;;;;;;;5030169;28;19914;-58
2022/12/17 23:27:14;;;;;;;;;;;;;;;;;;5030170;28;19920;-57
2022/12/17 23:29:39;;;;;;;;;;;;;;;;;;5031657;28;19909;-60
2022/12/17 23:32:05;;;;;;;;;;;;;;;;;;5027251;28;19952;-59
2022/12/17 23:34:31;;;;;;;;;;;;;;;;;;5012184;28;19920;-57
2022/12/17 23:36:57;;;;;;;;;;;;;;;;;;5029340;28;19917;-58
2022/12/17 23:39:23;;;;;;;;;;;;;;;;;;5030924;28;19913;-58
2022/12/17 23:41:49;;;;;;;;;;;;;;;;;;5030938;28;19998;-59
2022/12/17 23:44:15;;;;;;;;;;;;;;;;;;5034198;28;20483;-58
2022/12/17 23:46:41;;;;;;;;;;;;;;;;;;5033473;28;19925;-58
2022/12/17 23:49:07;;;;;;;;;;;;;;;;;;5025392;28;21732;-58
2022/12/17 23:51:33;;;;;;;;;;;;;;;;;;5030710;28;19932;-58
2022/12/17 23:53:59;;;;;;;;;;;;;;;;;;5033808;28;19913;-58
2022/12/17 23:56:25;;;;;;;;;;;;;;;;;;5033465;28;19939;-57
2022/12/17 23:58:51;;;;;;;;;;;;;;;;;;5033697;28;19913;-58
